Time;durP1;ratioP1;P1;durP2;ratioP2;P2;SDS_P1;SDS_P2;PMS_P1;PMS_P2;Temp;Humidity;BMP_temperature;BMP_pressure;BME280_temperature;BME280_humidity;BME280_pressure;Samples;Min_cycle;Max_cycle;Signal;HPM_P1;HPM_P2
2023/08/22 00:01:11;;;;;;;9.77;7.10;;;;;;;28.42;54.70;97789.13;5128314;27;20606;-76
2023/08/22 00:03:37;;;;;;;7.73;7.03;;;;;;;28.45;54.51;97794.00;5121331;27;20210;-75
2023/08/22 00:06:03;;;;;;;9.27;7.37;;;;;;;28.46;54.37;97802.94;5121150;27;20552;-75
2023/08/22 00:08:28;;;;;;;7.83;7.00;;;;;;;28.45;54.33;97798.59;5142812;27;20175;-76
2023/08/22 00:10:54;;;;;;;10.00;8.00;;;;;;;28.38;54.87;97787.19;5121792;27;20329;-76
2023/08/22 00:13:20;;;;;;;7.60;6.90;;;;;;;28.35;54.68;97793.91;5124605;27;20208;-75
2023/08/22 00:15:46;;;;;;;11.10;6.87;;;;;;;28.31;55.01;97793.63;5131314;27;20426;-75
2023/08/22 00:18:11;;;;;;;9.60;6.97;;;;;;;28.33;55.34;97802.25;5138283;27;20180;-76
2023/08/22 00:20:37;;;;;;;8.07;7.37;;;;;;;28.34;54.91;97795.81;5121739;27;20424;-75
2023/08/22 00:23:03;;;;;;;10.33;7.37;;;;;;;28.36;54.67;97790.16;5141915;27;20218;-75
2023/08/22 00:25:29;;;;;;;12.87;7.67;;;;;;;28.30;54.43;97785.75;5117411;27;20716;-76
2023/08/22 00:27:54;;;;;;;11.03;7.50;;;;;;;28.29;55.00;97784.16;5130297;27;20467;-74
2023/08/22 00:30:20;;;;;;;8.63;7.80;;;;;;;28.25;55.15;97789.22;5124098;27;20758;-75
2023/08/22 00:32:45;;;;;;;8.73;6.80;;;;;;;28.24;54.87;97782.19;5130717;27;20195;-76
2023/08/22 00:35:11;;;;;;;11.47;6.80;;;;;;;28.22;54.62;97784.38;5132091;27;20296;-75
2023/08/22 00:37:36;;;;;;;7.83;6.70;;;;;;;28.20;54.52;97775.72;5129667;27;20732;-76
2023/08/22 00:40:02;;;;;;;7.93;7.13;;;;;;;28.15;55.12;97778.34;5118232;27;20625;-74
2023/08/22 00:42:27;;;;;;;9.57;6.93;;;;;;;28.11;55.01;97778.03;5123581;27;20196;-77
2023/08/22 00:44:55;;;;;;;7.60;6.80;;;;;;;28.11;54.97;97777.22;5130846;27;20387;-76
2023/08/22 00:47:21;;;;;;;11.60;6.80;;;;;;;28.06;54.96;97775.25;5145056;27;20225;-75
2023/08/22 00:49:47;;;;;;;7.73;6.60;;;;;;;27.99;55.54;97772.75;5119642;27;20508;-75
2023/08/22 00:52:12;;;;;;;10.67;7.13;;;;;;;27.97;55.53;97777.59;5115942;28;20611;-77
2023/08/22 00:54:38;;;;;;;7.57;6.77;;;;;;;27.95;55.74;97768.94;5111243;28;20215;-74
2023/08/22 00:57:03;;;;;;;11.80;6.10;;;;;;;27.95;55.69;97768.13;5110867;27;20267;-74
2023/08/22 00:59:29;;;;;;;7.97;6.93;;;;;;;27.91;55.61;97775.88;5128826;27;20172;-76
2023/08/22 01:01:55;;;;;;;7.90;6.43;;;;;;;27.88;55.53;97776.38;5130284;27;20179;-76
2023/08/22 01:04:20;;;;;;;8.13;6.77;;;;;;;27.85;55.77;97769.63;5150075;27;20198;-75
2023/08/22 01:07:06;;;;;;;7.00;6.10;;;;;;;27.86;55.54;97767.75;5110154;27;20664;-75
2023/08/22 01:09:35;;;;;;;11.07;6.87;;;;;;;27.77;55.69;97762.00;5111457;28;20187;-76
2023/08/22 01:12:22;;;;;;;8.83;7.07;;;;;;;27.79;55.96;97761.75;5128906;27;20442;-75
2023/08/22 01:14:56;;;;;;;9.47;6.93;;;;;;;27.77;56.08;97761.19;5073846;27;20452;-76
2023/08/22 01:17:22;;;;;;;7.70;6.60;;;;;;;27.77;55.98;97766.56;5123657;27;20413;-75
2023/08/22 01:19:48;;;;;;;7.60;6.77;;;;;;;27.74;56.02;97770.56;5140224;27;20421;-76
2023/08/22 01:22:13;;;;;;;9.40;7.20;;;;;;;27.64;56.42;97765.06;5111103;28;20255;-75
2023/08/22 01:24:39;;;;;;;8.87;6.20;;;;;;;27.56;56.29;97758.25;5137610;27;20199;-75
2023/08/22 01:27:06;;;;;;;8.23;6.57;;;;;;;27.54;56.60;97754.97;5128592;27;20259;-75
2023/08/22 01:29:35;;;;;;;8.73;6.07;;;;;;;27.57;56.35;97749.09;5105757;27;1083415;-75
2023/08/22 01:32:16;;;;;;;7.20;6.00;;;;;;;27.52;56.55;97762.47;5112948;27;20740;-76
2023/08/22 01:34:42;;;;;;;7.10;6.50;;;;;;;27.51;56.51;97756.28;5108717;27;20822;-74
2023/08/22 01:37:09;;;;;;;6.97;5.73;;;;;;;27.55;56.35;97767.38;5113388;27;20921;-75
2023/08/22 01:39:35;;;;;;;7.17;6.57;;;;;;;27.56;56.18;97759.03;5128933;27;20431;-75
2023/08/22 01:42:01;;;;;;;9.30;6.87;;;;;;;27.52;56.12;97763.31;5112837;27;20990;-76
2023/08/22 01:44:28;;;;;;;7.20;6.50;;;;;;;27.53;56.36;97762.25;5119062;28;20446;-77
2023/08/22 01:46:54;;;;;;;10.67;6.40;;;;;;;27.53;56.34;97767.63;5138130;27;20271;-75
2023/08/22 01:49:19;;;;;;;8.50;5.97;;;;;;;27.53;56.35;97764.09;5121247;27;20834;-75
2023/08/22 01:51:45;;;;;;;9.97;7.10;;;;;;;27.46;56.39;97758.09;5121851;27;20384;-75
2023/08/22 01:54:10;;;;;;;7.10;6.20;;;;;;;27.45;56.43;97759.97;5128912;27;20226;-73
2023/08/22 01:56:36;;;;;;;7.63;6.30;;;;;;;27.46;56.24;97760.81;5121206;27;21046;-75
2023/08/22 01:59:01;;;;;;;6.90;6.20;;;;;;;27.40;56.42;97757.19;5133529;27;20255;-75
2023/08/22 02:01:27;;;;;;;7.37;6.60;;;;;;;27.41;56.54;97751.56;5111263;28;20180;-75
2023/08/22 02:03:52;;;;;;;12.83;6.33;;;;;;;27.40;56.39;97747.22;5119714;27;20196;-76
2023/08/22 02:06:18;;;;;;;8.40;6.00;;;;;;;27.39;56.57;97753.66;5133059;27;20749;-75
2023/08/22 02:08:43;;;;;;;7.17;6.17;;;;;;;27.40;56.38;97747.22;5133720;27;20203;-75
2023/08/22 02:11:08;;;;;;;8.90;6.13;;;;;;;27.36;56.54;97750.66;5131964;27;20196;-75
2023/08/22 02:13:34;;;;;;;9.70;5.60;;;;;;;27.29;56.75;97754.34;5129447;27;20338;-75
2023/08/22 02:16:00;;;;;;;6.20;5.70;;;;;;;27.27;56.94;97755.66;5126815;27;20187;-75
2023/08/22 02:18:26;;;;;;;6.40;5.87;;;;;;;27.25;56.82;97745.16;5124680;27;20213;-75
2023/08/22 02:20:53;;;;;;;7.00;6.07;;;;;;;27.24;56.77;97753.47;5099310;28;20779;-76
2023/08/22 02:23:18;;;;;;;6.13;5.63;;;;;;;27.21;56.65;97740.53;5117752;27;20279;-75
2023/08/22 02:25:44;;;;;;;8.73;6.53;;;;;;;27.16;56.83;97743.13;5124706;27;20929;-76
2023/08/22 02:28:09;;;;;;;6.53;5.83;;;;;;;27.10;57.03;97736.84;5146001;27;20316;-75
2023/08/22 02:30:34;;;;;;;6.80;6.23;;;;;;;27.08;57.37;97739.81;5138120;27;20732;-75
2023/08/22 02:33:00;;;;;;;6.70;6.00;;;;;;;27.06;57.20;97741.94;5135423;27;20228;-75
2023/08/22 02:35:25;;;;;;;7.03;6.23;;;;;;;27.10;56.83;97742.25;5136564;27;20304;-75
2023/08/22 02:37:51;;;;;;;12.57;6.20;;;;;;;27.07;57.16;97740.88;5133097;27;20176;-75
2023/08/22 02:40:17;;;;;;;9.17;7.23;;;;;;;27.07;57.12;97740.03;5138536;27;20187;-74
2023/08/22 02:42:43;;;;;;;7.30;6.30;;;;;;;27.05;57.15;97745.66;5140416;27;20898;-76
2023/08/22 02:45:09;;;;;;;13.07;5.97;;;;;;;27.00;57.10;97747.47;5142628;27;20240;-76
2023/08/22 02:47:35;;;;;;;6.90;6.40;;;;;;;26.94;57.54;97746.59;5138744;27;20413;-76
2023/08/22 02:50:00;;;;;;;7.03;6.33;;;;;;;26.88;57.71;97756.44;5135395;27;20508;-76
2023/08/22 02:52:26;;;;;;;8.80;6.83;;;;;;;26.88;57.97;97752.91;5128246;27;20219;-74
2023/08/22 02:54:52;;;;;;;12.33;6.80;;;;;;;26.83;57.82;97764.41;5123028;27;20233;-75
2023/08/22 02:57:17;;;;;;;7.80;6.40;;;;;;;26.81;57.79;97759.28;5127071;27;20254;-76
2023/08/22 02:59:43;;;;;;;9.00;6.80;;;;;;;26.80;57.52;97756.84;5132571;27;20514;-75
2023/08/22 03:02:08;;;;;;;9.87;6.40;;;;;;;26.74;57.89;97755.09;5122162;27;20245;-75
2023/08/22 03:04:36;;;;;;;7.07;6.40;;;;;;;26.72;57.59;97755.31;5130914;27;20196;-77
2023/08/22 03:07:02;;;;;;;9.03;6.00;;;;;;;26.67;58.15;97750.69;5130550;27;20178;-76
2023/08/22 03:09:29;;;;;;;7.73;6.27;;;;;;;26.63;58.15;97752.25;5144980;27;20905;-75
2023/08/22 03:11:54;;;;;;;7.87;7.03;;;;;;;26.61;58.53;97750.84;5142863;27;20675;-75
2023/08/22 03:14:20;;;;;;;7.40;6.70;;;;;;;26.67;58.22;97752.56;5140936;27;20430;-76
2023/08/22 03:16:45;;;;;;;7.00;6.30;;;;;;;26.65;58.26;97750.09;5105589;27;20272;-76
2023/08/22 03:19:11;;;;;;;7.80;6.60;;;;;;;26.62;58.11;97752.47;5119463;27;20604;-75
2023/08/22 03:21:36;;;;;;;7.27;6.37;;;;;;;26.60;58.31;97750.03;5132141;27;20173;-76
2023/08/22 03:24:02;;;;;;;6.43;5.93;;;;;;;26.60;58.38;97750.03;5131207;27;20261;-75
2023/08/22 03:26:27;;;;;;;8.17;6.50;;;;;;;26.59;58.12;97755.66;5110202;27;20293;-79
2023/08/22 03:28:52;;;;;;;9.30;6.67;;;;;;;26.49;58.47;97749.03;5118283;27;20279;-76
2023/08/22 03:31:18;;;;;;;10.57;6.63;;;;;;;26.46;58.47;97749.56;5134333;27;20725;-75
2023/08/22 03:33:43;;;;;;;9.50;6.67;;;;;;;26.49;58.35;97762.47;5136215;27;20292;-75
2023/08/22 03:36:09;;;;;;;7.47;6.67;;;;;;;26.46;58.58;97751.41;5127541;27;20331;-76
2023/08/22 03:38:34;;;;;;;7.27;6.10;;;;;;;26.45;58.18;97750.59;5132377;27;20234;-75
2023/08/22 03:41:00;;;;;;;12.00;6.57;;;;;;;26.46;58.05;97748.72;5103766;28;20269;-78
2023/08/22 03:43:26;;;;;;;6.93;6.10;;;;;;;26.43;58.35;97750.03;5137008;27;20203;-75
2023/08/22 03:45:51;;;;;;;8.63;6.23;;;;;;;26.43;58.32;97743.81;5125214;27;20552;-75
2023/08/22 03:48:17;;;;;;;6.70;6.10;;;;;;;26.32;58.54;97748.22;5128268;27;20426;-75
2023/08/22 03:50:42;;;;;;;8.83;6.07;;;;;;;26.34;58.37;97744.22;5122790;27;20699;-75
2023/08/22 03:53:09;;;;;;;8.37;6.17;;;;;;;26.36;58.42;97746.66;5103057;27;20599;-75
2023/08/22 03:55:34;;;;;;;11.70;6.90;;;;;;;26.37;58.48;97746.44;5132160;27;20176;-75
2023/08/22 03:58:00;;;;;;;12.90;6.37;;;;;;;26.32;58.25;97748.22;5138779;27;20413;-75
2023/08/22 04:00:26;;;;;;;6.73;5.97;;;;;;;26.33;58.31;97749.84;5112438;27;20187;-77
2023/08/22 04:02:55;;;;;;;7.23;6.53;;;;;;;26.25;58.72;97742.16;5131462;27;20644;-75
2023/08/22 04:05:22;;;;;;;10.03;7.10;;;;;;;26.21;58.54;97739.94;5139758;27;20188;-76
2023/08/22 04:07:48;;;;;;;11.07;6.77;;;;;;;26.20;58.66;97732.97;5138042;27;20614;-75
2023/08/22 04:10:13;;;;;;;6.00;5.40;;;;;;;26.17;58.48;97740.69;5139413;27;20429;-74
2023/08/22 04:12:38;;;;;;;7.67;6.53;;;;;;;26.14;58.86;97736.63;5139481;27;20544;-76
2023/08/22 04:15:04;;;;;;;9.77;5.90;;;;;;;26.09;58.61;97735.66;5138943;27;20249;-75
2023/08/22 04:17:30;;;;;;;8.30;6.00;;;;;;;26.08;58.60;97740.25;5136469;27;20184;-76
2023/08/22 04:19:55;;;;;;;7.67;5.80;;;;;;;26.10;58.35;97746.19;5126576;27;20200;-76
2023/08/22 04:22:20;;;;;;;11.57;6.40;;;;;;;26.10;58.65;97751.56;5124555;27;20181;-75
2023/08/22 04:24:46;;;;;;;7.50;6.00;;;;;;;26.09;58.53;97755.28;5131047;27;20551;-76
2023/08/22 04:27:11;;;;;;;7.13;5.60;;;;;;;26.05;58.68;97754.13;5129833;27;20197;-75
2023/08/22 04:29:37;;;;;;;7.73;6.57;;;;;;;26.02;58.66;97759.97;5131353;27;20187;-74
2023/08/22 04:32:03;;;;;;;8.53;6.10;;;;;;;26.00;58.60;97762.09;5129515;27;20736;-73
2023/08/22 04:34:29;;;;;;;7.00;6.10;;;;;;;25.97;58.84;97759.88;5149737;27;20200;-73
2023/08/22 04:36:54;;;;;;;6.73;5.70;;;;;;;25.96;59.06;97760.94;5131267;27;20429;-75
2023/08/22 04:39:20;;;;;;;7.77;5.90;;;;;;;25.95;59.01;97765.50;5130805;27;20188;-76
2023/08/22 04:41:45;;;;;;;6.73;6.00;;;;;;;25.95;58.89;97762.00;5142967;27;20258;-75
2023/08/22 04:44:11;;;;;;;8.30;6.40;;;;;;;25.96;59.34;97771.69;5133977;27;20215;-75
2023/08/22 04:46:36;;;;;;;11.30;5.77;;;;;;;26.00;58.95;97778.19;5138811;27;20180;-76
2023/08/22 04:49:02;;;;;;;8.10;5.87;;;;;;;26.00;58.61;97778.19;5125547;27;20528;-76
2023/08/22 04:51:27;;;;;;;6.60;5.90;;;;;;;25.99;58.71;97787.31;5127793;27;20203;-76
2023/08/22 04:53:53;;;;;;;8.20;6.47;;;;;;;25.97;58.83;97784.03;5140442;27;20246;-75
2023/08/22 04:56:19;;;;;;;8.83;6.17;;;;;;;26.00;58.93;97783.56;5134717;27;20188;-74
2023/08/22 04:58:44;;;;;;;8.33;6.40;;;;;;;25.96;59.03;97782.44;5120589;27;20483;-75
2023/08/22 05:01:10;;;;;;;8.57;6.47;;;;;;;25.97;59.33;97778.66;5103755;27;20768;-75
2023/08/22 05:03:35;;;;;;;9.13;6.03;;;;;;;25.97;59.05;97784.88;5143217;27;20199;-74
2023/08/22 05:06:01;;;;;;;10.73;6.80;;;;;;;26.01;58.89;97779.81;5133468;27;20659;-76
2023/08/22 05:08:26;;;;;;;13.10;6.60;;;;;;;25.99;59.30;97793.50;5124695;27;20179;-76
2023/08/22 05:10:52;;;;;;;8.13;6.40;;;;;;;26.04;59.06;97792.78;5121965;27;20189;-77
2023/08/22 05:13:17;;;;;;;8.80;6.37;;;;;;;26.03;59.17;97791.16;5146409;27;20283;-76
2023/08/22 05:15:43;;;;;;;9.67;6.63;;;;;;;26.05;59.07;97797.09;5142091;27;20266;-75
2023/08/22 05:18:09;;;;;;;7.93;5.60;;;;;;;26.08;59.06;97802.00;5123041;27;20648;-75
2023/08/22 05:20:34;;;;;;;8.90;6.17;;;;;;;26.11;58.88;97800.72;5140490;27;20181;-76
2023/08/22 05:23:00;;;;;;;9.60;6.00;;;;;;;26.09;58.72;97805.50;5122186;27;20567;-77
2023/08/22 05:25:25;;;;;;;6.47;4.90;;;;;;;26.07;58.89;97798.50;5127678;27;20195;-75
2023/08/22 05:27:51;;;;;;;9.90;5.70;;;;;;;26.10;59.47;97793.69;5124355;27;20579;-75
2023/08/22 05:30:16;;;;;;;12.60;6.70;;;;;;;26.15;59.14;97797.34;5130715;27;20300;-76
2023/08/22 05:32:42;;;;;;;12.20;6.10;;;;;;;26.20;59.05;97789.38;5147267;27;20239;-75
2023/08/22 05:35:08;;;;;;;8.37;5.57;;;;;;;26.21;59.00;97785.63;5133136;27;20472;-75
2023/08/22 05:37:33;;;;;;;6.50;5.77;;;;;;;26.31;59.18;97801.13;5133625;27;20185;-75
2023/08/22 05:39:59;;;;;;;7.17;5.80;;;;;;;26.39;59.13;97799.13;5127501;27;20259;-74
2023/08/22 05:42:25;;;;;;;14.83;6.10;;;;;;;26.43;58.64;97789.50;5147355;27;20583;-75
2023/08/22 05:44:50;;;;;;;6.87;6.17;;;;;;;26.48;58.87;97787.72;5133522;27;20189;-74
2023/08/22 05:47:16;;;;;;;9.33;5.80;;;;;;;26.57;58.68;97790.84;5137484;27;20754;-74
2023/08/22 05:49:44;;;;;;;9.90;5.90;;;;;;;26.64;58.78;97794.19;5139726;27;20204;-76
2023/08/22 05:52:09;;;;;;;7.50;5.90;;;;;;;26.70;58.48;97795.09;5113330;28;20612;-76
2023/08/22 05:54:35;;;;;;;7.80;5.90;;;;;;;26.79;58.41;97799.03;5139647;27;20529;-75
2023/08/22 05:57:00;;;;;;;7.03;5.60;;;;;;;26.89;58.07;97803.78;5140563;27;20249;-76
2023/08/22 05:59:26;;;;;;;8.93;6.20;;;;;;;27.00;58.04;97802.06;5121998;27;20786;-75
2023/08/22 06:01:52;;;;;;;9.40;5.87;;;;;;;27.12;57.56;97804.66;5125233;27;20193;-77
2023/08/22 06:04:17;;;;;;;8.23;5.50;;;;;;;27.21;57.45;97803.19;5133457;27;20287;-75
2023/08/22 06:06:44;;;;;;;8.87;5.90;;;;;;;27.33;57.30;97796.91;5117274;27;20725;-75
2023/08/22 06:09:10;;;;;;;8.20;5.90;;;;;;;27.49;56.83;97803.34;5119595;27;20184;-75
2023/08/22 06:11:36;;;;;;;5.20;4.80;;;;;;;27.64;56.00;97795.47;5136619;27;20819;-74
2023/08/22 06:14:01;;;;;;;13.23;5.50;;;;;;;27.84;56.00;97799.50;5146004;27;20448;-74
2023/08/22 06:16:27;;;;;;;8.40;4.93;;;;;;;28.01;55.22;97802.94;5145523;27;20555;-75
2023/08/22 06:18:52;;;;;;;8.90;5.47;;;;;;;28.19;54.75;97803.72;5131084;27;20185;-74
2023/08/22 06:21:18;;;;;;;9.90;5.80;;;;;;;28.40;54.50;97795.84;5142706;27;20183;-75
2023/08/22 06:23:43;;;;;;;7.13;5.03;;;;;;;28.54;54.05;97788.97;5154504;27;20203;-75
2023/08/22 06:26:13;;;;;;;4.83;4.40;;;;;;;28.73;53.28;97796.75;5145722;27;20184;-74
2023/08/22 06:28:39;;;;;;;7.60;5.13;;;;;;;28.93;52.97;97796.06;5142511;27;20192;-75
2023/08/22 06:31:05;;;;;;;7.60;5.60;;;;;;;29.10;51.98;97790.56;5143266;27;21029;-75
2023/08/22 06:33:31;;;;;;;8.20;4.97;;;;;;;29.26;51.56;97792.28;5142238;27;20206;-77
2023/08/22 06:35:56;;;;;;;10.20;4.23;;;;;;;29.42;50.67;97789.69;5125447;27;20974;-76
2023/08/22 06:38:22;;;;;;;12.07;5.37;;;;;;;29.57;50.08;97789.78;5141572;27;20180;-76
2023/08/22 06:40:48;;;;;;;6.93;4.73;;;;;;;29.73;50.12;97789.88;5141431;27;20172;-76
2023/08/22 06:43:14;;;;;;;6.83;5.10;;;;;;;29.85;49.88;97798.56;5150224;27;20223;-76
2023/08/22 06:45:39;;;;;;;6.73;4.80;;;;;;;30.02;49.72;97797.56;5149915;27;20253;-76
2023/08/22 06:48:05;;;;;;;10.33;4.80;;;;;;;30.16;48.90;97790.59;5132798;27;20379;-74
2023/08/22 06:50:30;;;;;;;6.33;4.43;;;;;;;30.31;48.88;97789.81;5132333;27;20192;-74
2023/08/22 06:52:56;;;;;;;7.27;5.03;;;;;;;30.45;48.21;97800.94;5113781;27;20211;-75
2023/08/22 06:55:21;;;;;;;8.60;4.70;;;;;;;30.61;48.13;97795.59;5132672;27;20829;-74
2023/08/22 06:57:47;;;;;;;6.20;4.23;;;;;;;30.75;47.76;97798.56;5123854;27;20275;-76
2023/08/22 07:00:16;;;;;;;13.73;4.50;;;;;;;30.87;46.78;97801.00;5118470;27;20181;-74
2023/08/22 07:02:43;;;;;;;11.23;5.27;;;;;;;30.98;46.11;97809.91;5134413;27;20223;-75
2023/08/22 07:05:09;;;;;;;12.87;4.70;;;;;;;31.08;45.87;97807.19;5122053;27;20431;-75
2023/08/22 07:07:35;;;;;;;7.17;4.03;;;;;;;31.21;46.03;97803.19;5135589;27;20424;-75
2023/08/22 07:10:01;;;;;;;5.00;4.30;;;;;;;31.30;45.87;97808.84;5170506;27;20440;-74
2023/08/22 07:12:26;;;;;;;10.43;4.27;;;;;;;31.44;45.77;97809.09;5144336;27;20450;-77
2023/08/22 07:14:51;;;;;;;11.63;4.50;;;;;;;31.57;45.15;97813.94;5150408;27;20177;-77
2023/08/22 07:17:17;;;;;;;6.73;4.33;;;;;;;31.69;44.45;97808.25;5134465;27;20181;-75
2023/08/22 07:19:42;;;;;;;4.80;4.10;;;;;;;31.81;44.73;97810.63;5122758;27;20630;-77
2023/08/22 07:22:08;;;;;;;7.23;4.30;;;;;;;31.92;44.35;97814.13;5114005;27;20180;-76
2023/08/22 07:24:33;;;;;;;7.40;4.67;;;;;;;32.08;43.91;97817.56;5122300;27;20239;-75
2023/08/22 07:26:59;;;;;;;4.80;4.13;;;;;;;32.19;43.38;97812.94;5140676;27;20234;-75
2023/08/22 07:29:24;;;;;;;11.13;4.20;;;;;;;32.33;43.37;97813.94;5148632;27;20227;-77
2023/08/22 07:31:50;;;;;;;6.93;4.20;;;;;;;32.45;42.70;97810.91;5139962;27;20192;-76
2023/08/22 07:34:15;;;;;;;8.53;4.13;;;;;;;32.60;42.85;97807.25;5140666;27;20204;-76
2023/08/22 07:36:41;;;;;;;8.90;4.30;;;;;;;32.75;42.27;97809.88;5129722;27;20180;-76
2023/08/22 07:39:06;;;;;;;6.77;4.13;;;;;;;32.89;41.98;97809.25;5123369;27;20192;-75
2023/08/22 07:41:32;;;;;;;8.07;3.67;;;;;;;32.99;41.16;97813.78;5141630;27;20793;-75
2023/08/22 07:43:57;;;;;;;7.13;4.37;;;;;;;32.83;41.61;97811.19;5144927;27;20199;-76
2023/08/22 07:46:23;;;;;;;12.57;4.10;;;;;;;32.98;41.70;97806.75;5135337;27;20271;-76
2023/08/22 07:48:49;;;;;;;5.80;4.27;;;;;;;33.14;42.05;97813.66;5139734;27;20181;-77
2023/08/22 07:51:14;;;;;;;8.20;4.07;;;;;;;33.37;41.63;97814.00;5112680;27;20962;-75
2023/08/22 07:53:40;;;;;;;4.93;3.73;;;;;;;33.59;41.68;97812.69;5115787;27;20572;-73
2023/08/22 07:56:06;;;;;;;8.90;3.60;;;;;;;33.76;40.88;97815.78;5132011;27;20208;-76
2023/08/22 07:58:31;;;;;;;6.53;3.63;;;;;;;33.88;40.05;97811.84;5136809;27;20243;-76
2023/08/22 08:00:56;;;;;;;5.07;3.43;;;;;;;34.03;39.92;97819.00;5139985;27;20421;-77
2023/08/22 08:03:22;;;;;;;8.20;3.20;;;;;;;34.14;38.25;97815.88;5131007;27;20211;-76
2023/08/22 08:05:47;;;;;;;7.60;3.30;;;;;;;34.25;38.62;97818.44;5122083;27;20180;-76
2023/08/22 08:08:13;;;;;;;5.67;3.33;;;;;;;34.42;38.84;97817.97;5137384;27;20788;-76
2023/08/22 08:10:39;;;;;;;9.10;3.50;;;;;;;34.56;38.52;97809.84;5113977;27;20640;-76
2023/08/22 08:13:04;;;;;;;4.93;3.53;;;;;;;34.73;38.43;97815.59;5138365;27;20199;-77
2023/08/22 08:15:30;;;;;;;4.40;3.57;;;;;;;34.80;37.78;97806.22;5130665;27;20208;-75
2023/08/22 08:17:58;;;;;;;6.17;3.50;;;;;;;34.88;38.11;97811.00;5130665;27;20594;-75
2023/08/22 08:20:24;;;;;;;6.53;3.60;;;;;;;35.02;37.75;97809.19;5138828;27;20213;-75
2023/08/22 08:22:50;;;;;;;6.13;3.27;;;;;;;35.13;37.59;97817.16;5139615;27;20437;-76
2023/08/22 08:25:15;;;;;;;4.27;3.83;;;;;;;35.28;37.32;97814.16;5146049;27;20901;-76
2023/08/22 08:27:41;;;;;;;5.57;3.10;;;;;;;35.31;36.81;97816.28;5124573;27;20683;-76
2023/08/22 08:30:07;;;;;;;3.93;3.13;;;;;;;35.42;37.03;97816.06;5151266;27;20206;-74
2023/08/22 08:32:32;;;;;;;4.07;3.67;;;;;;;35.55;36.56;97819.97;5141363;27;20222;-74
2023/08/22 08:34:58;;;;;;;6.50;3.53;;;;;;;35.58;36.61;97809.28;5117003;27;20417;-74
2023/08/22 08:37:23;;;;;;;6.03;3.43;;;;;;;35.69;36.62;97818.06;5130423;27;20192;-75
2023/08/22 08:39:49;;;;;;;6.80;3.50;;;;;;;35.88;36.28;97825.31;5127577;27;20306;-76
2023/08/22 08:42:14;;;;;;;5.90;3.40;;;;;;;35.97;35.80;97815.34;5119034;27;20183;-76
2023/08/22 08:44:40;;;;;;;4.63;3.10;;;;;;;36.04;35.80;97812.22;5149165;27;20202;-76
2023/08/22 08:47:09;;;;;;;3.47;3.10;;;;;;;35.93;35.69;97815.13;5130334;27;20190;-77
2023/08/22 08:49:35;;;;;;;4.20;3.27;;;;;;;36.08;35.91;97816.75;5139228;27;20183;-76
2023/08/22 08:52:04;;;;;;;5.10;3.37;;;;;;;36.15;35.64;97816.34;5150865;27;20479;-75
2023/08/22 08:54:31;;;;;;;4.50;3.30;;;;;;;36.40;35.55;97814.16;5150792;27;20608;-76
2023/08/22 08:56:56;;;;;;;8.87;3.80;;;;;;;36.53;34.72;97821.53;5138803;27;20422;-76
2023/08/22 08:59:23;;;;;;;5.20;3.17;;;;;;;36.66;35.00;97816.31;5137507;27;20484;-77
2023/08/22 09:01:50;;;;;;;4.10;3.20;;;;;;;36.82;34.71;97808.56;5133777;27;20793;-76
2023/08/22 09:04:15;;;;;;;4.03;3.17;;;;;;;36.95;34.27;97804.16;5141729;27;20436;-76
2023/08/22 09:06:41;;;;;;;6.27;3.47;;;;;;;36.95;33.74;97807.72;5128385;27;20930;-77
2023/08/22 09:09:08;;;;;;;8.03;3.83;;;;;;;37.16;34.10;97808.00;5130010;27;20179;-75
2023/08/22 09:11:34;;;;;;;4.63;3.07;;;;;;;37.11;33.47;97804.59;5129861;27;20195;-75
2023/08/22 09:14:00;;;;;;;4.10;3.30;;;;;;;37.27;33.60;97805.00;5141955;27;20441;-75
2023/08/22 09:16:28;;;;;;;3.40;3.10;;;;;;;37.44;33.34;97805.09;5134483;27;20974;-77
2023/08/22 09:19:00;;;;;;;3.67;3.37;;;;;;;37.66;32.92;97808.88;5149228;27;21641;-77
2023/08/22 09:21:25;;;;;;;4.87;3.27;;;;;;;37.82;32.69;97803.78;5138744;27;20425;-76
2023/08/22 09:23:50;;;;;;;9.23;3.10;;;;;;;38.00;31.50;97807.38;5136061;27;20467;-76
2023/08/22 09:26:22;;;;;;;3.90;3.40;;;;;;;37.85;30.50;97799.59;5135362;27;20267;-75
2023/08/22 09:28:50;;;;;;;8.27;3.00;;;;;;;37.95;30.90;97800.16;5135195;27;20192;-79
2023/08/22 09:31:23;;;;;;;5.27;3.23;;;;;;;38.14;31.13;97795.50;5113101;28;20474;-76
2023/08/22 09:33:49;;;;;;;3.80;3.00;;;;;;;38.22;30.74;97797.44;5111789;27;20494;-76
2023/08/22 09:36:21;;;;;;;4.70;3.30;;;;;;;38.28;30.38;97798.91;5134620;27;20439;-76
2023/08/22 09:38:53;;;;;;;6.23;3.17;;;;;;;38.39;30.57;97785.72;5129625;27;20925;-76
2023/08/22 09:41:26;;;;;;;5.43;3.40;;;;;;;38.39;30.61;97791.19;5134948;27;20425;-76
2023/08/22 09:44:00;;;;;;;4.73;3.30;;;;;;;38.55;30.67;97783.31;5136525;27;20440;-75
2023/08/22 09:46:27;;;;;;;5.33;2.87;;;;;;;38.72;30.42;97780.53;5139027;27;20217;-76
2023/08/22 09:48:55;;;;;;;6.53;3.07;;;;;;;38.68;29.92;97790.56;5140651;27;20434;-76
2023/08/22 09:51:20;;;;;;;4.50;2.90;;;;;;;38.74;30.06;97785.72;5133890;27;20486;-75
2023/08/22 09:53:50;;;;;;;13.33;3.33;;;;;;;38.86;29.76;97782.31;5133289;27;20484;-76
2023/08/22 09:56:18;;;;;;;6.90;3.07;;;;;;;38.50;30.03;97787.00;5106843;27;20180;-75
2023/08/22 09:58:43;;;;;;;3.50;3.00;;;;;;;38.49;30.13;97784.59;5133170;27;20562;-76
2023/08/22 10:01:11;;;;;;;6.20;3.10;;;;;;;38.72;29.97;97788.75;5125455;27;20176;-75
2023/08/22 10:03:37;;;;;;;8.33;3.10;;;;;;;38.95;28.93;97779.56;5115042;27;20196;-76
2023/08/22 10:06:03;;;;;;;3.23;2.93;;;;;;;38.99;28.87;97781.31;5108301;27;20955;-76
2023/08/22 10:08:29;;;;;;;9.40;3.07;;;;;;;39.16;29.02;97779.69;5133432;27;20597;-76
2023/08/22 10:10:56;;;;;;;7.63;3.20;;;;;;;39.31;28.74;97776.44;5141199;27;20206;-76
2023/08/22 10:13:22;;;;;;;5.63;3.30;;;;;;;39.47;29.03;97773.13;5133097;27;20490;-75
2023/08/22 10:15:48;;;;;;;4.40;3.10;;;;;;;39.56;28.70;97782.13;5133026;27;20928;-75
2023/08/22 10:18:14;;;;;;;6.23;3.10;;;;;;;39.53;28.63;97777.28;5146612;27;20266;-77
2023/08/22 10:20:40;;;;;;;9.43;3.07;;;;;;;39.76;28.73;97774.28;5127909;27;20287;-75
2023/08/22 10:23:08;;;;;;;10.00;2.90;;;;;;;39.67;28.10;97776.25;5119220;27;20683;-75
2023/08/22 10:25:49;;;;;;;5.53;2.58;;;;;;;39.75;27.91;97775.41;5128303;27;20789;-74
2023/08/22 10:28:15;;;;;;;5.20;2.83;;;;;;;39.72;27.71;97771.41;5126234;27;20195;-78
2023/08/22 10:31:03;;;;;;;8.50;3.40;;;;;;;39.87;27.81;97775.50;5132874;27;20224;-76
2023/08/22 10:33:29;;;;;;;11.00;2.60;;;;;;;40.07;27.66;97768.44;5132785;27;20676;-77
2023/08/22 10:36:13;;;;;;;4.30;3.13;;;;;;;40.18;28.52;97766.13;5131551;27;20176;-76
2023/08/22 10:38:53;;;;;;;4.07;2.53;;;;;;;40.08;28.35;97761.81;5113861;27;20636;-75
2023/08/22 10:41:45;;;;;;;8.85;2.83;;;;;;;40.18;28.32;97770.81;5126867;27;20417;-75
2023/08/22 10:44:17;;;;;;;5.30;3.15;;;;;;;40.32;27.97;97752.13;5133033;27;20677;-75
2023/08/22 10:47:00;;;;;;;4.20;3.20;;;;;;;40.19;28.70;97764.19;5132569;27;20184;-75
2023/08/22 10:49:38;;;;;;;4.10;2.65;;;;;;;40.38;28.43;97763.69;5137138;27;20172;-75
2023/08/22 10:52:11;;;;;;;6.32;3.40;;;;;;;40.24;28.28;97759.28;5129310;27;20203;-77
2023/08/22 10:54:55;;;;;;;5.57;3.05;;;;;;;40.16;28.69;97760.16;5128437;27;20198;-77
2023/08/22 10:57:20;;;;;;;3.83;2.83;;;;;;;39.90;28.66;97765.81;5140909;27;20307;-77
2023/08/22 10:59:59;;;;;;;4.43;2.60;;;;;;;39.76;28.48;97763.31;5128846;27;20175;-76
2023/08/22 11:02:29;;;;;;;6.55;3.00;;;;;;;39.87;28.42;97761.78;5146037;27;20696;-77
2023/08/22 11:04:59;;;;;;;8.55;3.00;;;;;;;40.05;28.33;97758.94;5149934;27;20182;-77
2023/08/22 11:07:26;;;;;;;27.92;3.78;;;;;;;39.97;28.31;97757.88;5146917;27;20546;-78
2023/08/22 11:09:56;;;;;;;5.50;2.75;;;;;;;39.66;28.67;97764.47;5125347;27;20179;-76
2023/08/22 11:12:23;;;;;;;3.80;2.83;;;;;;;39.41;28.77;97758.00;5126401;27;20215;-76
2023/08/22 11:14:50;;;;;;;9.43;2.97;;;;;;;38.96;29.75;97760.06;5134157;27;20249;-78
2023/08/22 11:17:17;;;;;;;4.70;2.78;;;;;;;38.80;29.93;97756.22;5134316;27;20198;-76
2023/08/22 11:19:43;;;;;;;5.37;3.17;;;;;;;38.64;29.84;97764.13;5123982;27;20842;-76
2023/08/22 11:22:09;;;;;;;6.67;2.90;;;;;;;38.41;30.41;97747.88;5138651;27;20201;-75
2023/08/22 11:24:34;;;;;;;3.47;3.17;;;;;;;38.35;29.92;97752.72;5148184;27;20574;-76
2023/08/22 11:27:04;;;;;;;5.57;3.30;;;;;;;38.38;30.27;97751.25;5145516;27;20201;-76
2023/08/22 11:29:38;;;;;;;6.40;3.50;;;;;;;38.53;30.48;97747.25;5121780;27;20236;-76